Time;durP1;ratioP1;P1;durP2;ratioP2;P2;SDS_P1;SDS_P2;PMS_P1;PMS_P2;Temp;Humidity;BMP_temperature;BMP_pressure;BME280_temperature;BME280_humidity;BME280_pressure;Samples;Min_cycle;Max_cycle;Signal;HPM_P1;HPM_P2
2023/11/04 00:02:16;;;;;;;0.55;0.47;;;;;;;;;;5909836;28;20070;-72
2023/11/04 00:05:07;;;;;;;0.40;0.40;;;;;;;;;;5909717;28;20386;-72
2023/11/04 00:07:58;;;;;;;0.50;0.50;;;;;;;;;;5910202;28;20395;-72
2023/11/04 00:10:53;;;;;;;0.20;0.20;;;;;;;;;;5909584;28;20044;-72
2023/11/04 00:13:44;;;;;;;0.45;0.45;;;;;;;;;;5908108;28;20051;-72
2023/11/04 00:16:35;;;;;;;1.73;0.88;;;;;;;;;;5909578;28;20445;-72
2023/11/04 00:19:26;;;;;;;0.75;0.75;;;;;;;;;;5909292;28;20048;-72
2023/11/04 00:22:17;;;;;;;0.85;0.82;;;;;;;;;;5909326;28;20056;-71
2023/11/04 00:25:09;;;;;;;0.32;0.32;;;;;;;;;;5909199;28;20056;-72
2023/11/04 00:28:01;;;;;;;0.30;0.30;;;;;;;;;;5909992;28;20059;-74
2023/11/04 00:30:52;;;;;;;0.25;0.25;;;;;;;;;;5909330;28;20045;-72
2023/11/04 00:33:43;;;;;;;0.30;0.30;;;;;;;;;;5909158;28;20131;-72
2023/11/04 00:36:34;;;;;;;0.75;0.40;;;;;;;;;;5909106;28;20076;-72
2023/11/04 00:39:25;;;;;;;0.93;0.30;;;;;;;;;;5909230;28;20050;-72
2023/11/04 00:42:16;;;;;;;5.47;0.55;;;;;;;;;;5909329;28;20197;-72
2023/11/04 00:45:08;;;;;;;1.20;1.10;;;;;;;;;;5894946;28;20555;-71
2023/11/04 00:47:59;;;;;;;0.45;0.45;;;;;;;;;;5886279;28;20049;-71
2023/11/04 00:50:51;;;;;;;0.30;0.30;;;;;;;;;;5885714;28;20045;-71
2023/11/04 00:53:41;;;;;;;0.45;0.45;;;;;;;;;;5885845;28;20049;-71
2023/11/04 00:56:33;;;;;;;0.28;0.28;;;;;;;;;;5885558;28;20049;-71
2023/11/04 00:59:24;;;;;;;0.28;0.28;;;;;;;;;;5885538;28;20065;-71
2023/11/04 01:02:14;;;;;;;0.15;0.15;;;;;;;;;;5896565;28;20048;-71
2023/11/04 01:05:05;;;;;;;0.30;0.30;;;;;;;;;;5907547;28;20059;-71
2023/11/04 01:07:56;;;;;;;1.13;0.50;;;;;;;;;;5909351;28;20090;-71
2023/11/04 01:10:47;;;;;;;0.38;0.38;;;;;;;;;;5908982;28;20047;-71
2023/11/04 01:13:39;;;;;;;3.60;0.45;;;;;;;;;;5908830;28;20121;-71
2023/11/04 01:16:29;;;;;;;1.48;1.02;;;;;;;;;;5908761;28;20044;-72
2023/11/04 01:19:20;;;;;;;0.82;0.50;;;;;;;;;;5908674;28;20063;-72
2023/11/04 01:22:11;;;;;;;0.22;0.22;;;;;;;;;;5908626;28;20053;-71
2023/11/04 01:25:08;;;;;;;0.30;0.30;;;;;;;;;;5908687;28;20052;-71
2023/11/04 01:27:58;;;;;;;0.30;0.30;;;;;;;;;;5907825;28;20055;-71
2023/11/04 01:30:49;;;;;;;0.30;0.30;;;;;;;;;;5908751;28;20056;-70
2023/11/04 01:33:40;;;;;;;0.28;0.28;;;;;;;;;;5908632;28;20041;-72
2023/11/04 01:36:31;;;;;;;0.43;0.43;;;;;;;;;;5908563;28;20098;-71
2023/11/04 01:39:22;;;;;;;0.32;0.32;;;;;;;;;;5908565;28;20055;-73
2023/11/04 01:42:13;;;;;;;1.55;0.70;;;;;;;;;;5908625;28;20122;-73
2023/11/04 01:45:05;;;;;;;0.50;0.35;;;;;;;;;;5908447;28;20044;-71
2023/11/04 01:47:56;;;;;;;0.20;0.20;;;;;;;;;;5912623;28;20391;-72
2023/11/04 01:50:47;;;;;;;0.45;0.30;;;;;;;;;;5912573;28;20048;-70
2023/11/04 01:53:46;;;;;;;0.22;0.22;;;;;;;;;;5911317;28;20586;-72
2023/11/04 01:56:40;;;;;;;1.50;0.50;;;;;;;;;;5911332;28;20417;-71
2023/11/04 01:59:31;;;;;;;0.93;0.40;;;;;;;;;;5912238;28;20049;-71
2023/11/04 02:02:24;;;;;;;1.27;0.70;;;;;;;;;;5912546;28;20044;-70
2023/11/04 02:05:15;;;;;;;0.43;0.40;;;;;;;;;;5910991;28;20049;-70
2023/11/04 02:08:06;;;;;;;0.22;0.22;;;;;;;;;;5912384;28;20494;-70
2023/11/04 02:10:57;;;;;;;0.73;0.60;;;;;;;;;;5912707;28;20049;-70
2023/11/04 02:13:48;;;;;;;0.30;0.30;;;;;;;;;;5912248;28;20044;-70
2023/11/04 02:16:38;;;;;;;3.30;0.50;;;;;;;;;;5912091;28;20048;-70
2023/11/04 02:19:29;;;;;;;0.20;0.20;;;;;;;;;;5912117;28;20410;-71
2023/11/04 02:22:20;;;;;;;0.63;0.63;;;;;;;;;;5912084;28;22306;-70
2023/11/04 02:25:18;;;;;;;1.58;1.33;;;;;;;;;;5911841;28;20052;-72
2023/11/04 02:28:09;;;;;;;0.10;0.10;;;;;;;;;;5911887;28;20052;-70
2023/11/04 02:30:59;;;;;;;0.10;0.10;;;;;;;;;;5912222;28;20091;-70
2023/11/04 02:33:50;;;;;;;0.30;0.30;;;;;;;;;;5911973;28;20032;-71
2023/11/04 02:36:41;;;;;;;0.30;0.30;;;;;;;;;;5911602;28;20045;-72
2023/11/04 02:39:32;;;;;;;0.25;0.25;;;;;;;;;;5911538;28;20448;-70
2023/11/04 02:42:23;;;;;;;0.30;0.30;;;;;;;;;;5911681;28;20387;-70
2023/11/04 02:45:14;;;;;;;0.32;0.32;;;;;;;;;;5911485;28;20125;-70
2023/11/04 02:48:05;;;;;;;0.60;0.57;;;;;;;;;;5911440;28;20044;-70
2023/11/04 02:50:56;;;;;;;0.50;0.50;;;;;;;;;;5911847;28;20060;-70
2023/11/04 02:53:47;;;;;;;0.45;0.45;;;;;;;;;;5911167;28;20051;-70
2023/11/04 02:56:38;;;;;;;0.30;0.30;;;;;;;;;;5911242;28;20070;-70
2023/11/04 02:59:30;;;;;;;0.73;0.30;;;;;;;;;;5910023;28;20068;-71
2023/11/04 03:02:21;;;;;;;1.75;0.60;;;;;;;;;;5911148;28;20057;-70
2023/11/04 03:05:12;;;;;;;0.43;0.43;;;;;;;;;;5910853;28;20540;-71
2023/11/04 03:08:17;;;;;;;2.88;0.95;;;;;;;;;;5910697;28;20049;-70
2023/11/04 03:11:08;;;;;;;0.22;0.22;;;;;;;;;;5910910;28;20132;-70
2023/11/04 03:13:59;;;;;;;0.63;0.63;;;;;;;;;;5909898;28;20056;-70
2023/11/04 03:16:55;;;;;;;0.55;0.40;;;;;;;;;;5909579;28;20051;-71
2023/11/04 03:19:46;;;;;;;0.28;0.28;;;;;;;;;;5910555;28;20048;-70
2023/11/04 03:22:37;;;;;;;2.38;0.93;;;;;;;;;;5910435;28;20048;-71
2023/11/04 03:25:28;;;;;;;0.80;0.60;;;;;;;;;;5910609;28;20466;-70
2023/11/04 03:28:18;;;;;;;0.25;0.25;;;;;;;;;;5909007;28;20052;-70
2023/11/04 03:31:09;;;;;;;0.63;0.63;;;;;;;;;;5910376;28;20048;-70
2023/11/04 03:34:00;;;;;;;0.10;0.10;;;;;;;;;;5910637;28;20060;-70
2023/11/04 03:36:51;;;;;;;0.22;0.22;;;;;;;;;;5910329;28;20838;-69
2023/11/04 03:39:42;;;;;;;0.38;0.38;;;;;;;;;;5910152;28;20041;-71
2023/11/04 03:42:36;;;;;;;1.08;0.28;;;;;;;;;;5910141;28;20050;-71
2023/11/04 03:45:27;;;;;;;0.57;0.38;;;;;;;;;;5910034;28;20052;-70
2023/11/04 03:48:18;;;;;;;0.30;0.30;;;;;;;;;;5908959;28;20458;-70
2023/11/04 03:51:09;;;;;;;0.20;0.20;;;;;;;;;;5894417;28;20049;-70
2023/11/04 03:54:00;;;;;;;0.80;0.30;;;;;;;;;;5907474;28;20426;-70
2023/11/04 03:56:50;;;;;;;0.70;0.45;;;;;;;;;;5909950;28;20043;-70
2023/11/04 03:59:41;;;;;;;0.20;0.20;;;;;;;;;;5909682;28;20525;-70
2023/11/04 04:02:33;;;;;;;0.40;0.40;;;;;;;;;;5909779;28;20498;-70
2023/11/04 04:05:24;;;;;;;2.03;0.20;;;;;;;;;;5909655;28;20161;-70
2023/11/04 04:08:15;;;;;;;0.35;0.35;;;;;;;;;;5909651;28;20052;-70
2023/11/04 04:11:06;;;;;;;3.25;1.15;;;;;;;;;;5909469;28;20045;-70
2023/11/04 04:13:58;;;;;;;1.65;1.00;;;;;;;;;;5909797;28;20048;-70
2023/11/04 04:16:48;;;;;;;0.38;0.35;;;;;;;;;;5884828;28;20065;-70
2023/11/04 04:19:39;;;;;;;0.70;0.68;;;;;;;;;;5886069;28;20052;-70
2023/11/04 04:22:30;;;;;;;0.30;0.30;;;;;;;;;;5886228;28;20037;-70
2023/11/04 04:25:21;;;;;;;0.22;0.22;;;;;;;;;;5886008;28;20060;-70
2023/11/04 04:28:11;;;;;;;0.25;0.25;;;;;;;;;;5885973;28;20049;-70
2023/11/04 04:31:02;;;;;;;0.50;0.40;;;;;;;;;;5886139;28;20058;-70
2023/11/04 04:33:53;;;;;;;0.30;0.30;;;;;;;;;;5886411;28;20060;-70
2023/11/04 04:36:47;;;;;;;0.22;0.22;;;;;;;;;;5885951;28;20048;-70
2023/11/04 04:39:38;;;;;;;0.50;0.50;;;;;;;;;;5885903;28;20529;-70
2023/11/04 04:42:29;;;;;;;0.63;0.52;;;;;;;;;;5885984;28;20049;-70
2023/11/04 04:45:20;;;;;;;1.02;0.57;;;;;;;;;;5885523;28;20159;-70
2023/11/04 04:48:11;;;;;;;0.38;0.38;;;;;;;;;;5891067;28;20617;-70
2023/11/04 04:51:02;;;;;;;0.35;0.35;;;;;;;;;;5886510;28;20068;-70
2023/11/04 04:53:53;;;;;;;0.15;0.15;;;;;;;;;;5886721;28;20045;-70
2023/11/04 04:56:43;;;;;;;1.30;0.43;;;;;;;;;;5890928;28;20048;-70
2023/11/04 04:59:34;;;;;;;0.45;0.45;;;;;;;;;;5909270;28;20116;-70
2023/11/04 05:02:25;;;;;;;0.40;0.40;;;;;;;;;;5896740;28;20052;-70
2023/11/04 05:05:15;;;;;;;1.52;0.50;;;;;;;;;;5886132;28;20103;-70
2023/11/04 05:08:06;;;;;;;0.20;0.20;;;;;;;;;;5885576;28;20044;-70
2023/11/04 05:10:58;;;;;;;0.82;0.75;;;;;;;;;;5886574;28;20049;-70
2023/11/04 05:13:49;;;;;;;0.30;0.30;;;;;;;;;;5885881;28;20044;-70
2023/11/04 05:16:40;;;;;;;0.40;0.40;;;;;;;;;;5885535;28;20208;-70
2023/11/04 05:19:31;;;;;;;0.40;0.40;;;;;;;;;;5885686;28;20410;-70
2023/11/04 05:22:23;;;;;;;0.43;0.43;;;;;;;;;;5888746;28;20410;-70
2023/11/04 05:25:14;;;;;;;0.22;0.22;;;;;;;;;;5890562;28;20099;-70
2023/11/04 05:28:05;;;;;;;0.60;0.60;;;;;;;;;;5890162;28;20057;-70
2023/11/04 05:30:56;;;;;;;0.52;0.35;;;;;;;;;;5890089;28;20053;-70
2023/11/04 05:33:47;;;;;;;0.30;0.30;;;;;;;;;;5890001;28;20499;-70
2023/11/04 05:36:38;;;;;;;0.85;0.63;;;;;;;;;;5888323;28;20123;-69
2023/11/04 05:39:30;;;;;;;0.20;0.20;;;;;;;;;;5889800;28;20052;-70
2023/11/04 05:42:23;;;;;;;0.77;0.77;;;;;;;;;;5889606;28;20056;-70
2023/11/04 05:45:14;;;;;;;0.55;0.43;;;;;;;;;;5889850;28;20049;-70
2023/11/04 05:48:05;;;;;;;0.50;0.40;;;;;;;;;;5889331;28;20092;-70
2023/11/04 05:50:56;;;;;;;1.30;1.00;;;;;;;;;;5888511;28;20091;-70
2023/11/04 05:53:47;;;;;;;0.73;0.68;;;;;;;;;;5889413;28;20088;-70
2023/11/04 05:56:38;;;;;;;0.30;0.30;;;;;;;;;;5891761;28;20063;-70
2023/11/04 05:59:29;;;;;;;0.20;0.20;;;;;;;;;;5892039;28;20044;-70
2023/11/04 06:02:20;;;;;;;0.75;0.75;;;;;;;;;;5888937;28;20049;-70
2023/11/04 06:05:15;;;;;;;6.13;0.75;;;;;;;;;;5889581;28;20049;-70
2023/11/04 06:08:06;;;;;;;0.68;0.68;;;;;;;;;;5889158;28;20057;-70
2023/11/04 06:10:56;;;;;;;0.85;0.63;;;;;;;;;;5889540;28;20049;-70
2023/11/04 06:13:47;;;;;;;0.10;0.10;;;;;;;;;;5888785;28;20107;-70
2023/11/04 06:16:38;;;;;;;0.65;0.50;;;;;;;;;;5888701;28;20515;-70
2023/11/04 06:19:29;;;;;;;0.22;0.22;;;;;;;;;;5888938;28;20049;-70
2023/11/04 06:22:20;;;;;;;0.30;0.30;;;;;;;;;;5888846;28;20063;-70
2023/11/04 06:25:11;;;;;;;1.27;0.55;;;;;;;;;;5889149;28;20049;-70
2023/11/04 06:28:05;;;;;;;0.73;0.32;;;;;;;;;;5888667;28;20048;-70
2023/11/04 06:30:56;;;;;;;0.50;0.50;;;;;;;;;;5887456;28;20053;-70
2023/11/04 06:33:47;;;;;;;0.40;0.40;;;;;;;;;;5888653;28;20396;-70
2023/11/04 06:36:38;;;;;;;0.57;0.57;;;;;;;;;;5888287;28;20135;-70
2023/11/04 06:39:29;;;;;;;1.80;0.50;;;;;;;;;;5888513;28;20164;-70
2023/11/04 06:42:26;;;;;;;0.45;0.45;;;;;;;;;;5888549;28;20571;-70
2023/11/04 06:45:17;;;;;;;0.65;0.40;;;;;;;;;;5888489;28;20052;-70
2023/11/04 06:48:08;;;;;;;1.30;0.82;;;;;;;;;;5886629;28;20069;-70
2023/11/04 06:50:59;;;;;;;0.47;0.47;;;;;;;;;;5886560;28;20053;-70
2023/11/04 06:53:50;;;;;;;0.45;0.45;;;;;;;;;;5886842;28;20045;-70
2023/11/04 06:56:41;;;;;;;0.70;0.50;;;;;;;;;;5888031;28;20487;-70
2023/11/04 06:59:32;;;;;;;0.63;0.63;;;;;;;;;;5886732;28;20045;-70
2023/11/04 07:02:22;;;;;;;3.63;0.65;;;;;;;;;;5886172;28;20048;-70
2023/11/04 07:05:13;;;;;;;1.23;0.50;;;;;;;;;;5888176;28;20068;-71
2023/11/04 07:08:05;;;;;;;0.70;0.55;;;;;;;;;;5888006;28;20053;-71
2023/11/04 07:10:55;;;;;;;3.78;0.43;;;;;;;;;;5888244;28;20131;-71
2023/11/04 07:13:46;;;;;;;0.82;0.70;;;;;;;;;;5887828;28;20048;-71
2023/11/04 07:16:37;;;;;;;1.55;0.57;;;;;;;;;;5887361;28;20173;-71
2023/11/04 07:19:28;;;;;;;1.60;0.70;;;;;;;;;;5887855;28;20059;-71
2023/11/04 07:22:19;;;;;;;0.82;0.65;;;;;;;;;;5887680;28;20499;-71
2023/11/04 07:25:10;;;;;;;1.58;0.40;;;;;;;;;;5887890;28;20056;-71
2023/11/04 07:28:01;;;;;;;0.30;0.30;;;;;;;;;;5887434;28;20057;-71
2023/11/04 07:30:52;;;;;;;1.23;0.85;;;;;;;;;;5887963;28;20049;-71
2023/11/04 07:33:43;;;;;;;1.17;0.85;;;;;;;;;;5887203;28;20128;-71
2023/11/04 07:36:33;;;;;;;0.35;0.35;;;;;;;;;;5887284;28;20605;-71
2023/11/04 07:39:24;;;;;;;0.82;0.70;;;;;;;;;;5887718;28;20123;-71
2023/11/04 07:42:15;;;;;;;24.02;17.88;;;;;;;;;;5885394;28;20048;-71
2023/11/04 07:45:11;;;;;;;4.75;3.88;;;;;;;;;;5881709;28;20048;-71
2023/11/04 07:48:03;;;;;;;9.90;2.20;;;;;;;;;;5876760;28;20786;-71
2023/11/04 07:50:54;;;;;;;3.67;2.13;;;;;;;;;;5903979;28;20059;-71
2023/11/04 07:53:44;;;;;;;1.95;1.45;;;;;;;;;;5894245;28;20040;-71
2023/11/04 07:56:35;;;;;;;0.73;0.45;;;;;;;;;;5886211;28;20570;-71
2023/11/04 07:59:26;;;;;;;0.80;0.70;;;;;;;;;;5884778;28;20057;-71
2023/11/04 08:02:17;;;;;;;2.53;1.00;;;;;;;;;;5885911;28;20502;-71
2023/11/04 08:05:11;;;;;;;3.92;0.75;;;;;;;;;;5907338;28;20045;-71
2023/11/04 08:08:03;;;;;;;0.68;0.65;;;;;;;;;;5899021;28;20151;-71
2023/11/04 08:10:55;;;;;;;0.25;0.25;;;;;;;;;;5886319;28;20396;-71
2023/11/04 08:13:46;;;;;;;0.98;0.75;;;;;;;;;;5885600;28;20049;-71
2023/11/04 08:16:38;;;;;;;3.40;1.35;;;;;;;;;;5885340;28;20048;-71
2023/11/04 08:19:29;;;;;;;3.78;1.73;;;;;;;;;;5899797;28;20485;-72
2023/11/04 08:22:19;;;;;;;11.15;4.70;;;;;;;;;;5909106;28;20246;-71
2023/11/04 08:25:10;;;;;;;5.78;3.45;;;;;;;;;;5885162;28;20049;-71
2023/11/04 08:28:01;;;;;;;6.40;3.35;;;;;;;;;;5890486;28;20498;-71
2023/11/04 08:30:53;;;;;;;2.95;1.27;;;;;;;;;;5909542;28;20045;-71
2023/11/04 08:33:44;;;;;;;2.50;1.98;;;;;;;;;;5896238;28;20064;-71
2023/11/04 08:36:35;;;;;;;5.95;2.05;;;;;;;;;;5880142;28;20486;-70
2023/11/04 08:39:26;;;;;;;1.48;0.98;;;;;;;;;;5903097;28;20041;-71
2023/11/04 08:42:16;;;;;;;2.33;1.48;;;;;;;;;;5909084;28;20056;-70
2023/11/04 08:45:12;;;;;;;1.95;1.05;;;;;;;;;;5905093;28;20052;-70
2023/11/04 08:48:03;;;;;;;2.45;1.08;;;;;;;;;;5885268;28;20060;-70
2023/11/04 08:50:55;;;;;;;2.42;1.48;;;;;;;;;;5885885;28;20076;-72
2023/11/04 08:53:46;;;;;;;3.08;1.65;;;;;;;;;;5897708;28;20414;-71
2023/11/04 08:56:37;;;;;;;1.88;1.05;;;;;;;;;;5910015;28;20391;-71
2023/11/04 08:59:29;;;;;;;4.63;2.00;;;;;;;;;;5895265;28;20071;-71
2023/11/04 09:02:20;;;;;;;1.75;0.73;;;;;;;;;;5889698;28;20049;-71
2023/11/04 09:05:11;;;;;;;2.38;1.70;;;;;;;;;;5889934;28;20056;-71
2023/11/04 09:08:09;;;;;;;1.38;1.02;;;;;;;;;;5890053;28;20566;-70
2023/11/04 09:11:00;;;;;;;4.32;1.33;;;;;;;;;;5891493;28;20418;-70
2023/11/04 09:13:51;;;;;;;1.85;0.70;;;;;;;;;;5911854;28;20056;-70
2023/11/04 09:16:42;;;;;;;1.73;1.55;;;;;;;;;;5895070;28;20458;-70
2023/11/04 09:19:32;;;;;;;5.43;1.75;;;;;;;;;;5905925;28;20044;-71
2023/11/04 09:22:23;;;;;;;1.70;1.05;;;;;;;;;;5891506;28;20052;-71
2023/11/04 09:25:14;;;;;;;1.95;1.15;;;;;;;;;;5890364;28;20056;-70
2023/11/04 09:28:05;;;;;;;1.10;0.85;;;;;;;;;;5889240;28;20415;-71
2023/11/04 09:30:56;;;;;;;0.47;0.38;;;;;;;;;;5890878;28;20048;-72
2023/11/04 09:33:46;;;;;;;1.05;0.55;;;;;;;;;;5889762;28;20418;-70
2023/11/04 09:36:37;;;;;;;0.60;0.57;;;;;;;;;;5890160;28;20099;-71
2023/11/04 09:39:28;;;;;;;2.45;0.90;;;;;;;;;;5890109;28;20044;-70
2023/11/04 09:42:19;;;;;;;0.45;0.45;;;;;;;;;;5889569;28;20140;-70
2023/11/04 09:45:11;;;;;;;1.02;0.70;;;;;;;;;;5889816;28;20043;-71
2023/11/04 09:48:02;;;;;;;1.63;0.32;;;;;;;;;;5889695;28;20179;-71
2023/11/04 09:50:59;;;;;;;2.38;1.48;;;;;;;;;;5890376;28;20053;-70
2023/11/04 09:53:57;;;;;;;0.95;0.80;;;;;;;;;;5888232;28;20450;-70
2023/11/04 09:56:48;;;;;;;1.88;1.02;;;;;;;;;;5888614;28;20049;-70
2023/11/04 09:59:41;;;;;;;2.63;1.95;;;;;;;;;;5889799;28;20051;-69
2023/11/04 10:02:32;;;;;;;2.55;0.95;;;;;;;;;;5887561;28;20048;-70
2023/11/04 10:05:23;;;;;;;9.32;2.45;;;;;;;;;;5889188;28;20060;-71
2023/11/04 10:08:14;;;;;;;3.30;0.95;;;;;;;;;;5887642;28;20053;-70
2023/11/04 10:11:05;;;;;;;10.27;4.85;;;;;;;;;;5888984;28;20057;-70
2023/11/04 10:13:56;;;;;;;2.03;0.85;;;;;;;;;;5888613;28;20135;-70
2023/11/04 10:16:48;;;;;;;8.82;3.05;;;;;;;;;;5887900;28;20048;-70
2023/11/04 10:19:39;;;;;;;2.72;2.08;;;;;;;;;;5889001;28;20049;-70
2023/11/04 10:22:30;;;;;;;1.08;0.73;;;;;;;;;;5889073;28;20150;-69
2023/11/04 10:25:20;;;;;;;6.45;3.90;;;;;;;;;;5887943;28;20179;-70
2023/11/04 10:28:12;;;;;;;11.90;5.53;;;;;;;;;;5888207;28;20136;-69
2023/11/04 10:31:04;;;;;;;8.32;2.63;;;;;;;;;;5888981;28;20056;-70
2023/11/04 10:34:02;;;;;;;3.15;2.13;;;;;;;;;;5888676;28;20495;-69
2023/11/04 10:36:54;;;;;;;8.65;2.75;;;;;;;;;;5888992;28;20045;-70
2023/11/04 10:40:05;;;;;;;23.88;7.45;;;;;;;;;;5888357;28;20044;-70
2023/11/04 10:43:07;;;;;;;12.68;4.10;;;;;;;;;;5888959;28;20052;-69
2023/11/04 10:46:07;;;;;;;4.22;2.83;;;;;;;;;;5895420;28;20043;-71
2023/11/04 10:49:11;;;;;;;4.82;1.65;;;;;;;;;;5893303;28;20048;-70
2023/11/04 10:52:09;;;;;;;3.83;2.63;;;;;;;;;;5890906;28;20045;-70
2023/11/04 10:55:14;;;;;;;6.97;2.83;;;;;;;;;;5887102;28;20546;-70
2023/11/04 10:58:18;;;;;;;4.20;2.55;;;;;;;;;;5887450;28;20490;-70
2023/11/04 11:01:12;;;;;;;12.50;3.95;;;;;;;;;;5888134;28;20049;-71
2023/11/04 11:04:03;;;;;;;5.32;2.00;;;;;;;;;;5887807;28;20061;-71
2023/11/04 11:06:54;;;;;;;4.28;1.77;;;;;;;;;;5887391;28;20055;-70
2023/11/04 11:09:46;;;;;;;32.35;10.02;;;;;;;;;;5886157;28;20044;-70
2023/11/04 11:13:20;;;;;;;3.58;2.72;;;;;;;;;;5886399;28;20099;-69
2023/11/04 11:16:11;;;;;;;3.00;2.05;;;;;;;;;;5892141;28;20073;-69
2023/11/04 11:19:11;;;;;;;4.88;1.52;;;;;;;;;;5897313;28;20056;-70
2023/11/04 11:22:05;;;;;;;3.05;1.13;;;;;;;;;;5904976;28;20140;-71
2023/11/04 11:24:57;;;;;;;5.63;2.70;;;;;;;;;;5909970;28;20410;-69
2023/11/04 11:27:48;;;;;;;1.20;0.90;;;;;;;;;;5910403;28;20076;-69
2023/11/04 11:30:42;;;;;;;0.88;0.40;;;;;;;;;;5910877;28;20571;-70
2023/11/04 11:33:33;;;;;;;9.43;3.13;;;;;;;;;;5910553;28;20441;-70
2023/11/04 11:36:24;;;;;;;1.98;0.80;;;;;;;;;;5893577;28;20048;-69
2023/11/04 11:39:15;;;;;;;5.10;2.22;;;;;;;;;;5909193;28;20048;-70
2023/11/04 11:42:06;;;;;;;1.75;1.27;;;;;;;;;;5892051;28;20392;-69
2023/11/04 11:44:57;;;;;;;7.70;3.22;;;;;;;;;;5887906;28;20052;-71
2023/11/04 11:47:48;;;;;;;23.25;11.43;;;;;;;;;;5909843;28;20426;-69
2023/11/04 11:50:41;;;;;;;2.13;1.30;;;;;;;;;;5901492;28;20118;-69
2023/11/04 11:53:32;;;;;;;0.35;0.35;;;;;;;;;;5887328;28;20041;-69
2023/11/04 11:56:23;;;;;;;0.88;0.57;;;;;;;;;;5887036;28;20413;-69
2023/11/04 11:59:14;;;;;;;4.00;1.80;;;;;;;;;;5886724;28;20056;-69
2023/11/04 12:02:07;;;;;;;1.50;0.88;;;;;;;;;;5886935;28;20061;-69
2023/11/04 12:05:01;;;;;;;0.80;0.57;;;;;;;;;;5886826;28;20049;-69
2023/11/04 12:07:52;;;;;;;1.25;1.15;;;;;;;;;;5886787;28;20513;-69
2023/11/04 12:10:46;;;;;;;1.15;0.88;;;;;;;;;;5886959;28;20045;-69
2023/11/04 12:13:37;;;;;;;11.18;1.63;;;;;;;;;;5887353;28;20067;-69
2023/11/04 12:16:31;;;;;;;0.70;0.65;;;;;;;;;;5885176;28;20048;-69
2023/11/04 12:19:23;;;;;;;7.80;3.08;;;;;;;;;;5886553;28;20041;-69
2023/11/04 12:22:14;;;;;;;30.88;14.32;;;;;;;;;;5885044;28;20525;-69
2023/11/04 12:25:06;;;;;;;5.03;2.38;;;;;;;;;;5886653;28;20057;-69
2023/11/04 12:28:01;;;;;;;10.05;2.97;;;;;;;;;;5887154;28;20053;-68
2023/11/04 12:31:03;;;;;;;2.80;2.00;;;;;;;;;;5886661;28;20037;-68
2023/11/04 12:33:56;;;;;;;3.92;1.90;;;;;;;;;;5887151;28;20554;-68
2023/11/04 12:36:47;;;;;;;0.40;0.40;;;;;;;;;;5902316;28;20508;-69
2023/11/04 12:39:38;;;;;;;17.83;6.35;;;;;;;;;;5909892;28;20049;-69
2023/11/04 12:42:29;;;;;;;7.45;3.90;;;;;;;;;;5887718;28;20049;-68
2023/11/04 12:45:22;;;;;;;1.02;0.93;;;;;;;;;;5886093;28;20048;-68
2023/11/04 12:48:13;;;;;;;5.28;2.97;;;;;;;;;;5886125;28;20172;-68
2023/11/04 12:51:04;;;;;;;3.53;0.85;;;;;;;;;;5885871;28;20755;-69
2023/11/04 12:53:55;;;;;;;7.05;1.95;;;;;;;;;;5885621;28;20460;-69
2023/11/04 12:56:47;;;;;;;4.95;2.28;;;;;;;;;;5886339;28;20045;-69
2023/11/04 12:59:37;;;;;;;1.13;0.80;;;;;;;;;;5885755;28;20052;-68
2023/11/04 13:02:28;;;;;;;7.97;3.05;;;;;;;;;;5886300;28;20501;-68
2023/11/04 13:05:19;;;;;;;7.40;5.05;;;;;;;;;;5885840;28;20092;-69
2023/11/04 13:08:10;;;;;;;2.45;2.25;;;;;;;;;;5886170;28;20056;-69
2023/11/04 13:11:01;;;;;;;17.13;7.72;;;;;;;;;;5885254;28;20491;-69
2023/11/04 13:13:53;;;;;;;43.28;15.13;;;;;;;;;;5884383;28;20068;-69
2023/11/04 13:16:43;;;;;;;6.05;2.55;;;;;;;;;;5886029;28;20048;-68
2023/11/04 13:19:34;;;;;;;4.07;3.03;;;;;;;;;;5885546;28;20072;-68
2023/11/04 13:22:25;;;;;;;25.48;8.68;;;;;;;;;;5885688;28;20052;-69
2023/11/04 13:25:16;;;;;;;18.60;8.10;;;;;;;;;;5885548;28;20041;-68
2023/11/04 13:28:07;;;;;;;11.57;4.30;;;;;;;;;;5885501;28;20049;-68
2023/11/04 13:30:58;;;;;;;3.65;2.33;;;;;;;;;;5889477;28;20045;-68
2023/11/04 13:33:49;;;;;;;21.92;10.52;;;;;;;;;;5907770;28;20048;-68
2023/11/04 13:36:39;;;;;;;7.88;4.75;;;;;;;;;;5888634;28;20053;-68
2023/11/04 13:39:31;;;;;;;5.05;1.58;;;;;;;;;;5885226;28;20392;-67
2023/11/04 13:42:22;;;;;;;52.33;11.63;;;;;;;;;;5892113;28;20044;-68
2023/11/04 13:45:12;;;;;;;12.20;6.82;;;;;;;;;;5894770;28;20053;-68
2023/11/04 13:48:04;;;;;;;14.68;8.63;;;;;;;;;;5889493;28;20087;-68
2023/11/04 13:50:59;;;;;;;10.32;4.05;;;;;;;;;;5889763;28;20521;-68
2023/11/04 13:53:50;;;;;;;0.70;0.63;;;;;;;;;;5895104;28;20093;-68
2023/11/04 13:56:41;;;;;;;1.33;0.85;;;;;;;;;;5889591;28;20044;-68
2023/11/04 13:59:31;;;;;;;2.97;0.63;;;;;;;;;;5897197;28;20247;-68
2023/11/04 14:02:26;;;;;;;0.70;0.47;;;;;;;;;;5897578;28;20044;-69
2023/11/04 14:05:18;;;;;;;9.60;3.90;;;;;;;;;;5906781;28;20058;-69
2023/11/04 14:08:09;;;;;;;3.67;2.83;;;;;;;;;;5905856;28;20041;-68
2023/11/04 14:10:59;;;;;;;3.10;1.60;;;;;;;;;;5886439;28;20064;-68
2023/11/04 14:13:51;;;;;;;7.95;2.67;;;;;;;;;;5900749;28;20084;-68
2023/11/04 14:16:42;;;;;;;2.67;1.58;;;;;;;;;;5891341;28;20070;-68
2023/11/04 14:19:32;;;;;;;1.58;1.33;;;;;;;;;;5891513;28;20060;-68
2023/11/04 14:22:23;;;;;;;20.40;1.08;;;;;;;;;;5888494;28;20040;-68
2023/11/04 14:25:14;;;;;;;4.78;1.08;;;;;;;;;;5866541;28;20041;-68
2023/11/04 14:28:06;;;;;;;0.50;0.50;;;;;;;;;;5887650;28;20049;-68
2023/11/04 14:30:57;;;;;;;0.35;0.35;;;;;;;;;;5888091;28;20060;-68
2023/11/04 14:33:48;;;;;;;2.00;1.13;;;;;;;;;;5888386;28;20041;-68
2023/11/04 14:36:39;;;;;;;23.73;7.32;;;;;;;;;;5888140;28;20045;-67
2023/11/04 14:39:29;;;;;;;20.17;8.63;;;;;;;;;;5884357;28;20186;-68
2023/11/04 14:42:22;;;;;;;76.00;34.80;;;;;;;;;;5907951;28;20044;-68
2023/11/04 14:45:13;;;;;;;38.28;20.35;;;;;;;;;;5911371;28;20605;-68
2023/11/04 14:48:05;;;;;;;15.10;8.43;;;;;;;;;;5911052;28;20409;-67
2023/11/04 14:50:57;;;;;;;14.98;5.35;;;;;;;;;;5912072;28;20050;-67
2023/11/04 14:53:48;;;;;;;5.10;2.00;;;;;;;;;;5897273;28;20044;-67
2023/11/04 14:56:39;;;;;;;2.42;1.80;;;;;;;;;;5887355;28;20049;-67
2023/11/04 14:59:30;;;;;;;3.70;2.33;;;;;;;;;;5887644;28;20041;-67
2023/11/04 15:02:21;;;;;;;5.05;1.75;;;;;;;;;;5870188;28;20125;-67
2023/11/04 15:05:12;;;;;;;4.55;2.65;;;;;;;;;;5887101;28;20049;-68
2023/11/04 15:08:03;;;;;;;1.65;1.55;;;;;;;;;;5890373;28;20487;-68
2023/11/04 15:10:53;;;;;;;4.82;3.17;;;;;;;;;;5888515;28;20083;-67
2023/11/04 15:13:44;;;;;;;3.47;1.40;;;;;;;;;;5887440;28;20052;-67
2023/11/04 15:16:36;;;;;;;8.90;1.50;;;;;;;;;;5887520;28;20051;-67
2023/11/04 15:19:27;;;;;;;19.75;1.83;;;;;;;;;;5888650;28;20430;-68
2023/11/04 15:22:17;;;;;;;3.45;2.35;;;;;;;;;;5888386;28;20131;-67
2023/11/04 15:25:10;;;;;;;15.85;10.32;;;;;;;;;;5904628;28;20045;-68
2023/11/04 15:28:01;;;;;;;63.58;36.28;;;;;;;;;;5904288;28;20495;-68
2023/11/04 15:30:52;;;;;;;80.28;35.60;;;;;;;;;;5888037;28;20049;-67
2023/11/04 15:33:43;;;;;;;24.27;12.88;;;;;;;;;;5892297;28;20479;-67
2023/11/04 15:36:34;;;;;;;12.27;5.50;;;;;;;;;;5889719;28;20130;-67
2023/11/04 15:39:25;;;;;;;31.48;15.52;;;;;;;;;;5904255;28;20047;-68
2023/11/04 15:42:15;;;;;;;61.33;38.17;;;;;;;;;;5906949;28;20398;-67
2023/11/04 15:45:06;;;;;;;114.72;59.60;;;;;;;;;;5886981;28;20045;-68
2023/11/04 15:47:59;;;;;;;409.52;218.43;;;;;;;;;;5887268;28;20195;-67
2023/11/04 15:50:54;;;;;;;235.00;114.03;;;;;;;;;;5890035;28;20052;-67
2023/11/04 15:53:45;;;;;;;172.88;84.90;;;;;;;;;;5890684;28;20575;-67
2023/11/04 15:56:36;;;;;;;100.80;43.03;;;;;;;;;;5884626;28;20052;-67
2023/11/04 15:59:26;;;;;;;65.47;22.75;;;;;;;;;;5884420;28;20045;-67
2023/11/04 16:02:17;;;;;;;56.78;29.20;;;;;;;;;;5884531;28;20059;-67
2023/11/04 16:05:08;;;;;;;61.30;32.15;;;;;;;;;;5883943;28;20053;-68
2023/11/04 16:07:59;;;;;;;25.88;16.33;;;;;;;;;;5884511;28;20045;-67
2023/11/04 16:10:50;;;;;;;25.60;12.63;;;;;;;;;;5885425;28;20740;-67
2023/11/04 16:13:42;;;;;;;10.93;6.95;;;;;;;;;;5884091;28;20056;-67
2023/11/04 16:16:33;;;;;;;28.92;15.02;;;;;;;;;;5884554;28;20045;-67
2023/11/04 16:19:24;;;;;;;67.88;37.15;;;;;;;;;;5884624;28;20055;-67
2023/11/04 16:22:15;;;;;;;123.28;63.95;;;;;;;;;;5884622;28;20126;-67
2023/11/04 16:25:07;;;;;;;66.30;33.15;;;;;;;;;;5884899;28;20405;-68
2023/11/04 16:27:59;;;;;;;28.30;13.30;;;;;;;;;;5886768;28;20132;-67
2023/11/04 16:30:53;;;;;;;6.72;5.68;;;;;;;;;;5886582;28;20067;-67
2023/11/04 16:33:44;;;;;;;8.27;6.65;;;;;;;;;;5886049;28;20120;-67
2023/11/04 16:36:34;;;;;;;11.88;5.90;;;;;;;;;;5886070;28;20048;-67
2023/11/04 16:39:26;;;;;;;10.75;3.25;;;;;;;;;;5885777;28;20044;-67
2023/11/04 16:42:17;;;;;;;8.38;4.50;;;;;;;;;;5903892;28;20055;-67
2023/11/04 16:45:09;;;;;;;4.10;1.33;;;;;;;;;;5905135;28;20044;-67
2023/11/04 16:48:05;;;;;;;9.70;3.50;;;;;;;;;;5886049;28;20753;-68
2023/11/04 16:50:56;;;;;;;8.02;2.67;;;;;;;;;;5886929;28;20051;-67
2023/11/04 16:53:48;;;;;;;7.65;3.53;;;;;;;;;;5897931;28;20040;-67
2023/11/04 16:56:38;;;;;;;14.93;3.90;;;;;;;;;;5897072;28;20503;-67
2023/11/04 16:59:29;;;;;;;9.43;4.57;;;;;;;;;;5885598;28;20045;-67
2023/11/04 17:02:20;;;;;;;11.35;5.63;;;;;;;;;;5886055;28;20048;-67
2023/11/04 17:05:11;;;;;;;10.95;4.40;;;;;;;;;;5886023;28;20052;-67